Terminal Aerodrome Forecast
Issued by NWS Albany, NY

Home | Current Version | Previous Version | Text Only | Print | Product List | Glossary On
Versions: 1 2 3 4 5 6 7 8 9 10 11 12 13
000
FTUS41 KALY 031730
TAFPOU
TAF
KPOU 031730Z 0318/0418 26005KT P6SM SCT080
     FM040100 00000KT P6SM SKC
     FM041400 23008KT P6SM FEW080=

USA.gov is the U.S. government's official web portal to all federal, state and local government web resources and services.